Lizella, Georgia
Current Conditions -  °F | °C
As of 9:53 AM on Friday 31 Oct 2014 (Local Time) from KMCN Reporting Station
Clear Clear  
Wind Chill: 11°   Ceiling: Unl
Heat Index: 11°   Visibility: 10mi
Dew Point:   Wind: 7mph
Humidity: 74%   Direction: 340°NNW
Pressure: 29.95"   Gusts: NA
Location:  32.81°N, 83.82°W
Report Text: KMCN 311353Z 34006KT 10SM CLR 11/07 A2995 RMK AO2 SLP139 T01110067
Loading
Personal Weather Stations






























Interactive Weather Map
Tropical Storm Tracking
New forecast layout! Learn more

10-Day Weather Forecast

Advertisements
Track Severe Weather on mobile